Hauptseite
METAR-TAF:

METAR-TAF

Flughäfen :

Flughafen Sabadell

Sabadell, Spanien

Breite: 41-31N, Länge: 002-06E, Höhe: 250 m

Beobachtung

Neuester Wetterbericht von vor 46 Minuten, um 05:00 UTC
Wind 6 kt aus West
Temperatur 5°C
Luftfeuchtigkeit 81%
Luftdruck 1008 hPa
Sichtweite 10 km oder mehr

METAR: LELL 170500Z AUTO 26006KT 9999 NCD 05/02 Q1008

Zeit: 06:46 (05:46 UTC)

Prognose

Neuester Wetterbericht von vor 3 Stunden und 46 Minuten, um 02:00 UTC
Gültige Prognose vom 17 um 03 UTC bis 18 um 03 UTC
Wind 4 kt aus unterschiedlichen Richtungen
Sichtweite 10 km oder mehr
Leicht bewölkt in der Höhe von 3000 ft

TAF: LELL 170200Z 1703/1803 VRB04KT 9999 FEW030 TX15/1713Z TN03/1706Z

Wetterbeobachtungen und Prognosen von mehr als 4000 Flughäfen (METAR und TAF Bericht).

Die verfügbaren Stationen werden durch gelbe und rote Markierungen auf der Karte dargestellt.

Führen Sie die Maus auf sie, um den Namen der Station zu sehen.

Darauf klicken, um die Beobachtung von Wetterbeobachtungen und Prognosen zu sehen.

Um die Karte zu ändern : klicken Sie auf den grünen Tasten mit einem schwarzen Kreuz Zum Vergrößern, auf den grünen Button mit einem Gedankenstrich zu verkleinern, oder auf die grünen Pfeile für benachbarte Karten.


METAR-TAF: